createdAt,value
2018-08-09T00:00:09.080Z,42.80
2018-08-09T00:02:37.878Z,42.80
2018-08-09T00:05:07.825Z,41.90
2018-08-09T00:07:36.640Z,42.30
2018-08-09T00:10:05.958Z,42.90
2018-08-09T00:12:34.759Z,42.50
2018-08-09T00:15:03.557Z,43.00
2018-08-09T00:17:32.381Z,43.00
2018-08-09T00:20:01.153Z,43.10
2018-08-09T00:22:30.530Z,43.10
2018-08-09T00:24:59.337Z,43.20
2018-08-09T00:27:28.223Z,43.20
2018-08-09T00:29:57.037Z,43.20
2018-08-09T00:32:25.843Z,43.20
2018-08-09T00:34:54.634Z,43.20
2018-08-09T00:37:23.441Z,43.20
2018-08-09T00:39:52.287Z,43.20
2018-08-09T00:42:21.099Z,43.20
2018-08-09T00:44:50.650Z,42.60
2018-08-09T00:47:19.489Z,42.50
2018-08-09T00:49:48.295Z,42.60
2018-08-09T00:52:17.089Z,42.50
2018-08-09T00:54:46.423Z,42.70
2018-08-09T00:57:15.230Z,42.70
2018-08-09T00:59:44.055Z,42.80
2018-08-09T01:02:12.864Z,42.80
2018-08-09T01:04:41.681Z,42.50
2018-08-09T01:07:10.876Z,42.50
2018-08-09T01:09:39.700Z,43.50
2018-08-09T01:12:08.542Z,43.50
2018-08-09T01:14:37.343Z,43.20
2018-08-09T01:17:06.223Z,42.80
2018-08-09T01:19:35.079Z,44.00
2018-08-09T01:22:03.946Z,44.20
2018-08-09T01:27:01.396Z,44.90
2018-08-09T01:29:30.711Z,45.70
2018-08-09T01:31:59.502Z,46.40
2018-08-09T01:34:28.318Z,46.60
2018-08-09T01:36:57.132Z,45.00
2018-08-09T01:39:25.951Z,47.10
2018-08-09T01:42:12.076Z,47.70
2018-08-09T01:44:40.879Z,48.10
2018-08-09T01:47:09.695Z,47.70
2018-08-09T01:49:39.039Z,48.70
2018-08-09T01:52:07.871Z,48.90
2018-08-09T01:54:36.679Z,49.10
2018-08-09T01:57:05.875Z,47.20
2018-08-09T01:59:34.677Z,49.60
2018-08-09T02:02:03.483Z,49.80
2018-08-09T02:04:32.308Z,50.00
2018-08-09T02:07:01.089Z,50.40
2018-08-09T02:09:33.936Z,50.50
2018-08-09T02:12:04.155Z,51.10
2018-08-09T02:14:33.248Z,51.50
2018-08-09T02:17:02.247Z,51.70
2018-08-09T02:19:31.235Z,51.90
2018-08-09T02:22:00.059Z,52.30
2018-08-09T02:24:28.882Z,50.80
2018-08-09T02:26:57.692Z,52.00
2018-08-09T02:29:26.494Z,52.60
2018-08-09T02:31:55.757Z,52.90
2018-08-09T02:34:24.562Z,53.40
2018-08-09T02:36:53.447Z,51.90
2018-08-09T02:39:22.250Z,53.30
2018-08-09T02:41:51.051Z,53.90
2018-08-09T02:44:19.844Z,53.90
2018-08-09T02:46:48.718Z,54.30
2018-08-09T02:49:17.515Z,54.60
2018-08-09T02:51:46.283Z,54.60
2018-08-09T02:54:15.509Z,54.90
2018-08-09T02:56:44.323Z,54.40
2018-08-09T02:59:13.551Z,55.20
2018-08-09T03:01:42.381Z,55.40
2018-08-09T03:04:11.173Z,55.30
2018-08-09T03:06:40.126Z,55.70
2018-08-09T03:09:11.635Z,55.60
2018-08-09T03:11:40.916Z,55.80
2018-08-09T03:14:09.804Z,55.80
2018-08-09T03:16:38.944Z,56.00
2018-08-09T03:19:07.759Z,54.70
2018-08-09T03:21:36.581Z,55.50
2018-08-09T03:24:05.587Z,55.70
2018-08-09T03:26:43.293Z,55.50
2018-08-09T03:29:12.165Z,54.30
2018-08-09T03:31:40.963Z,55.80
2018-08-09T03:36:38.571Z,56.40
2018-08-09T03:39:09.033Z,57.00
2018-08-09T03:41:37.846Z,56.80
2018-08-09T03:44:06.843Z,56.90
2018-08-09T03:54:04.857Z,57.40
2018-08-09T03:56:34.261Z,57.20
2018-08-09T03:59:03.053Z,57.50
2018-08-09T04:01:32.263Z,57.50
2018-08-09T04:06:29.721Z,57.20
2018-08-09T04:08:58.521Z,56.20
2018-08-09T04:11:27.337Z,57.60
2018-08-09T04:13:56.125Z,57.90
2018-08-09T04:18:53.865Z,57.60
2018-08-09T04:21:22.775Z,58.20
2018-08-09T04:23:51.587Z,58.10
2018-08-09T04:26:20.399Z,59.00
2018-08-09T04:28:49.278Z,57.10
2018-08-09T04:31:18.077Z,58.30
2018-08-09T04:33:46.930Z,58.10
2018-08-09T04:36:15.756Z,59.00
2018-08-09T04:46:10.853Z,57.00
2018-08-09T04:48:39.680Z,57.00
2018-08-09T04:51:15.219Z,58.80
2018-08-09T04:53:44.012Z,58.30
2018-08-09T04:56:12.801Z,58.00
2018-08-09T04:58:41.605Z,58.80
2018-08-09T05:01:10.749Z,57.30
2018-08-09T05:03:40.069Z,58.60
2018-08-09T05:06:08.864Z,58.60
2018-08-09T05:08:37.701Z,58.30
2018-08-09T05:11:06.512Z,58.20
2018-08-09T05:13:35.312Z,58.10
2018-08-09T05:16:04.113Z,58.00
2018-08-09T05:18:32.902Z,57.00
2018-08-09T05:21:01.711Z,57.60
2018-08-09T05:23:30.976Z,56.50
2018-08-09T05:25:59.870Z,57.40
2018-08-09T05:28:28.682Z,57.80
2018-08-09T05:30:57.500Z,57.50
2018-08-09T05:33:28.400Z,57.30
2018-08-09T05:35:57.234Z,57.20
2018-08-09T05:38:26.295Z,55.90
2018-08-09T05:40:56.102Z,56.70
2018-08-09T05:43:24.917Z,55.90
2018-08-09T05:48:22.731Z,55.40
2018-08-09T05:50:51.575Z,55.90
2018-08-09T05:53:20.476Z,55.60
2018-08-09T05:55:49.270Z,54.80
2018-08-09T05:58:18.091Z,55.30
2018-08-09T06:00:46.919Z,54.60
2018-08-09T06:03:15.721Z,54.00
2018-08-09T06:05:44.836Z,54.40
2018-08-09T06:08:13.870Z,54.10
2018-08-09T06:10:42.675Z,53.90
2018-08-09T06:13:11.480Z,52.80
2018-08-09T06:15:40.329Z,52.50
2018-08-09T06:18:09.139Z,52.20
2018-08-09T06:20:37.944Z,51.80
2018-08-09T06:23:06.757Z,52.00
2018-08-09T06:25:35.544Z,52.10
2018-08-09T06:28:04.346Z,52.00
2018-08-09T06:30:33.594Z,51.70
2018-08-09T06:33:02.397Z,51.00
2018-08-09T06:35:31.224Z,51.50
2018-08-09T06:38:00.040Z,51.00
2018-08-09T06:40:28.865Z,50.80
2018-08-09T06:42:57.669Z,50.70
2018-08-09T06:45:26.480Z,50.90
2018-08-09T06:47:55.314Z,51.30
2018-08-09T06:50:24.153Z,51.10
2018-08-09T06:52:53.493Z,50.80
2018-08-09T06:57:51.013Z,50.70
2018-08-09T07:00:19.847Z,50.60
2018-08-09T07:02:48.664Z,50.50
2018-08-09T07:05:17.479Z,50.50
2018-08-09T07:07:46.665Z,50.50
2018-08-09T07:10:15.458Z,50.50
2018-08-09T07:12:44.300Z,50.50
2018-08-09T07:15:14.233Z,50.50
2018-08-09T07:17:43.022Z,50.60
2018-08-09T07:20:11.911Z,50.70
2018-08-09T07:22:47.577Z,50.70
2018-08-09T07:25:16.357Z,50.80
2018-08-09T07:27:45.164Z,50.70
2018-08-09T07:30:14.558Z,50.70
2018-08-09T07:32:43.423Z,50.70
2018-08-09T07:37:41.065Z,50.70
2018-08-09T07:40:11.755Z,51.20
2018-08-09T07:42:41.498Z,51.20
2018-08-09T07:45:11.889Z,51.00
2018-08-09T07:47:40.991Z,50.50
2018-08-09T07:50:10.503Z,50.40
2018-08-09T07:52:39.446Z,50.40
2018-08-09T08:00:01.305Z,50.20
2018-08-09T08:02:30.109Z,50.40
2018-08-09T08:04:58.924Z,50.40
2018-08-09T08:07:27.740Z,50.40
2018-08-09T08:09:56.995Z,50.20
2018-08-09T08:12:25.794Z,50.20
2018-08-09T08:14:54.665Z,50.20
2018-08-09T08:17:23.438Z,50.20
2018-08-09T08:19:52.244Z,50.70
2018-08-09T08:22:21.264Z,50.70
2018-08-09T08:24:50.067Z,50.10
2018-08-09T08:27:18.867Z,50.10
2018-08-09T08:29:47.687Z,50.60
2018-08-09T08:32:16.498Z,50.50
2018-08-09T08:34:45.328Z,49.90
2018-08-09T08:37:14.191Z,49.90
2018-08-09T08:39:43.010Z,50.40
2018-08-09T08:42:11.940Z,50.00
2018-08-09T08:44:41.077Z,50.00
2018-08-09T08:47:09.882Z,49.90
2018-08-09T08:49:38.657Z,49.80
2018-08-09T08:52:13.776Z,49.60
2018-08-09T08:54:42.601Z,49.40
2018-08-09T08:57:11.455Z,49.10
2018-08-09T08:59:40.268Z,49.60
2018-08-09T09:02:09.125Z,49.10
2018-08-09T09:04:38.099Z,48.90
2018-08-09T09:07:07.331Z,49.40
2018-08-09T09:09:36.109Z,49.40
2018-08-09T09:12:05.269Z,49.10
2018-08-09T09:14:34.098Z,49.50
2018-08-09T09:17:02.921Z,48.70
2018-08-09T09:19:31.751Z,49.00
2018-08-09T09:22:00.577Z,48.60
2018-08-09T09:24:29.380Z,48.60
2018-08-09T09:26:58.236Z,48.40
2018-08-09T09:29:27.437Z,48.30
2018-08-09T09:31:56.252Z,48.60
2018-08-09T09:34:25.101Z,48.40
2018-08-09T09:36:53.977Z,48.30
2018-08-09T09:39:22.776Z,48.20
2018-08-09T09:41:51.656Z,48.00
2018-08-09T09:44:20.467Z,48.00
2018-08-09T09:46:49.294Z,48.10
2018-08-09T09:49:18.077Z,48.30
2018-08-09T09:51:47.375Z,48.20
2018-08-09T09:54:16.166Z,48.00
2018-08-09T09:56:44.979Z,48.10
2018-08-09T09:59:13.791Z,47.40
2018-08-09T10:01:42.608Z,47.60
2018-08-09T10:04:11.512Z,47.40
2018-08-09T10:06:40.327Z,47.00
2018-08-09T10:09:11.149Z,47.40
2018-08-09T10:11:40.153Z,47.40
2018-08-09T10:14:09.607Z,47.30
2018-08-09T10:16:38.418Z,47.00
2018-08-09T10:19:07.274Z,46.30
2018-08-09T10:21:36.095Z,46.90
2018-08-09T10:24:04.909Z,46.70
2018-08-09T10:26:33.845Z,46.50
2018-08-09T10:31:31.340Z,46.50
2018-08-09T10:34:00.137Z,46.30
2018-08-09T10:36:29.361Z,46.20
2018-08-09T10:38:58.221Z,46.10
2018-08-09T10:41:27.043Z,45.40
2018-08-09T10:43:55.838Z,45.10
2018-08-09T10:46:24.668Z,45.10
2018-08-09T10:48:53.481Z,44.70
2018-08-09T10:51:22.314Z,44.50
2018-08-09T10:53:51.113Z,44.50
2018-08-09T10:56:19.936Z,44.70
2018-08-09T10:58:48.990Z,44.70
2018-08-09T11:01:17.773Z,44.60
2018-08-09T11:03:46.568Z,44.60
2018-08-09T11:06:15.477Z,44.50
2018-08-09T11:08:44.313Z,44.20
2018-08-09T11:13:44.479Z,43.80
2018-08-09T11:16:14.589Z,43.70
2018-08-09T11:18:44.373Z,44.20
2018-08-09T11:21:13.803Z,43.70
2018-08-09T11:23:42.628Z,42.90
2018-08-09T11:26:11.401Z,43.30
2018-08-09T11:28:40.211Z,43.40
2018-08-09T11:31:09.025Z,43.70
2018-08-09T11:33:37.845Z,43.00
2018-08-09T11:36:06.659Z,42.80
2018-08-09T11:38:38.511Z,43.20
2018-08-09T11:41:07.955Z,42.50
2018-08-09T11:43:36.752Z,42.40
2018-08-09T11:46:05.599Z,42.40
2018-08-09T11:48:34.412Z,42.30
2018-08-09T11:51:03.221Z,42.30
2018-08-09T11:53:32.099Z,41.90
2018-08-09T11:56:00.961Z,41.90
2018-08-09T11:58:29.900Z,41.70
2018-08-09T12:00:58.739Z,41.80
2018-08-09T12:03:34.581Z,41.20
2018-08-09T12:06:03.373Z,41.50
2018-08-09T12:08:32.198Z,42.00
2018-08-09T12:11:01.067Z,41.50
2018-08-09T12:13:29.891Z,41.40
2018-08-09T12:15:58.709Z,41.20
2018-08-09T12:18:27.941Z,40.90
2018-08-09T12:20:56.820Z,41.30
2018-08-09T12:23:25.573Z,41.40
2018-08-09T12:25:54.814Z,41.40
2018-08-09T12:28:23.691Z,41.00
2018-08-09T12:30:52.501Z,41.20
2018-08-09T12:33:21.376Z,41.30
2018-08-09T12:35:50.172Z,40.90
2018-08-09T12:38:19.013Z,41.00
2018-08-09T12:40:47.861Z,40.70
2018-08-09T12:43:16.696Z,40.50
2018-08-09T12:45:45.509Z,40.30
2018-08-09T12:48:14.590Z,40.20
2018-08-09T12:50:43.445Z,40.20
2018-08-09T12:53:12.245Z,40.30
2018-08-09T12:55:41.079Z,39.60
2018-08-09T12:58:09.895Z,39.40
2018-08-09T13:00:38.730Z,39.70
2018-08-09T13:03:07.801Z,38.90
2018-08-09T13:05:36.668Z,38.80
2018-08-09T13:08:05.886Z,38.70
2018-08-09T13:10:35.231Z,38.30
2018-08-09T13:13:04.035Z,38.50
2018-08-09T13:15:32.967Z,38.30
2018-08-09T13:18:01.798Z,37.70
2018-08-09T13:20:31.159Z,37.50
2018-08-09T13:22:59.981Z,37.70
2018-08-09T13:25:28.809Z,37.10
2018-08-09T13:27:57.596Z,35.20
2018-08-09T13:30:26.410Z,35.30
2018-08-09T13:32:55.559Z,35.80
2018-08-09T13:35:24.371Z,36.00
2018-08-09T13:37:53.167Z,35.30
2018-08-09T13:40:22.038Z,35.20
2018-08-09T13:42:50.838Z,36.00
2018-08-09T13:45:19.676Z,34.90
2018-08-09T13:47:48.543Z,34.30
2018-08-09T13:50:17.373Z,34.10
2018-08-09T13:52:46.226Z,33.70
2018-08-09T13:55:15.899Z,33.60
2018-08-09T13:57:44.993Z,33.70
2018-08-09T14:00:14.617Z,33.70
2018-08-09T14:02:44.719Z,33.70
2018-08-09T14:05:13.583Z,33.30
2018-08-09T14:07:43.447Z,34.50
2018-08-09T14:10:12.627Z,33.30
2018-08-09T14:12:42.320Z,33.20
2018-08-09T14:15:13.413Z,32.90
2018-08-09T14:17:42.231Z,32.50
2018-08-09T14:20:14.555Z,32.50
2018-08-09T14:22:44.043Z,32.20
2018-08-09T14:25:13.444Z,32.30
2018-08-09T14:27:42.267Z,32.60
2018-08-09T14:30:13.653Z,32.80
2018-08-09T14:32:43.324Z,32.20
2018-08-09T14:35:14.167Z,31.70
2018-08-09T14:37:44.031Z,33.20
2018-08-09T14:40:13.550Z,31.70
2018-08-09T14:42:42.362Z,31.90
2018-08-09T14:45:16.080Z,31.90
2018-08-09T14:47:44.957Z,31.60
2018-08-09T14:50:13.811Z,31.90
2018-08-09T14:52:43.109Z,31.90
2018-08-09T14:55:12.830Z,31.40
2018-08-09T14:57:42.337Z,31.40
2018-08-09T15:00:16.992Z,32.10
2018-08-09T15:02:46.364Z,30.90
2018-08-09T15:05:15.662Z,30.70
2018-08-09T15:07:45.062Z,30.60
2018-08-09T15:10:14.894Z,30.90
2018-08-09T15:12:43.689Z,31.00
2018-08-09T15:15:12.869Z,31.20
2018-08-09T15:17:41.830Z,31.00
2018-08-09T15:20:12.758Z,31.20
2018-08-09T15:22:41.686Z,31.10
2018-08-09T15:25:11.481Z,31.00
2018-08-09T15:27:40.318Z,31.20
2018-08-09T15:30:14.651Z,31.10
2018-08-09T15:32:43.610Z,30.80
2018-08-09T15:35:12.691Z,30.70
2018-08-09T15:37:41.543Z,30.90
2018-08-09T15:40:11.767Z,31.10
2018-08-09T15:42:40.630Z,30.80
2018-08-09T15:45:12.139Z,30.90
2018-08-09T15:47:41.735Z,30.90
2018-08-09T15:50:15.654Z,30.90
2018-08-09T15:52:44.468Z,30.70
2018-08-09T15:55:14.789Z,30.50
2018-08-09T15:57:43.719Z,31.20
2018-08-09T16:00:19.179Z,30.70
2018-08-09T16:02:48.154Z,30.40
2018-08-09T16:05:17.019Z,30.50
2018-08-09T16:07:46.223Z,30.50
2018-08-09T16:10:16.642Z,30.60
2018-08-09T16:12:45.880Z,30.70
2018-08-09T16:15:16.257Z,30.80
2018-08-09T16:17:46.254Z,30.70
2018-08-09T16:20:15.124Z,30.40
2018-08-09T16:22:44.649Z,30.40
2018-08-09T16:25:16.769Z,30.00
2018-08-09T16:27:45.676Z,30.10
2018-08-09T16:30:18.493Z,30.00
2018-08-09T16:32:47.406Z,30.00
2018-08-09T16:35:16.245Z,30.00
2018-08-09T16:37:45.478Z,30.00
2018-08-09T16:40:17.667Z,30.10
2018-08-09T16:42:46.559Z,30.50
2018-08-09T16:45:16.988Z,30.40
2018-08-09T16:47:45.961Z,30.60
2018-08-09T16:50:18.565Z,30.70
2018-08-09T16:52:48.463Z,30.70
2018-08-09T16:55:18.486Z,30.80
2018-08-09T16:57:47.331Z,30.60
2018-08-09T17:00:19.278Z,31.00
2018-08-09T17:02:48.256Z,30.90
2018-08-09T17:05:20.118Z,30.90
2018-08-09T17:07:49.382Z,30.90
2018-08-09T17:10:20.323Z,30.70
2018-08-09T17:12:49.215Z,30.60
2018-08-09T17:15:23.677Z,30.90
2018-08-09T17:17:52.881Z,30.70
2018-08-09T17:20:27.663Z,30.70
2018-08-09T17:22:56.805Z,30.40
2018-08-09T17:25:26.106Z,30.60
2018-08-09T17:27:55.265Z,30.90
2018-08-09T17:30:26.533Z,30.90
2018-08-09T17:32:56.235Z,30.80
2018-08-09T17:35:25.079Z,30.80
2018-08-09T17:37:54.508Z,30.80
2018-08-09T17:40:29.111Z,30.90
2018-08-09T17:42:58.825Z,30.90
2018-08-09T17:45:35.869Z,30.60
2018-08-09T17:48:05.433Z,31.10
2018-08-09T17:50:34.269Z,31.20
2018-08-09T17:53:03.639Z,31.50
2018-08-09T17:55:33.077Z,31.50
2018-08-09T17:58:01.914Z,31.70
2018-08-09T18:00:32.244Z,31.70
2018-08-09T18:03:01.065Z,31.80
2018-08-09T18:05:29.973Z,32.10
2018-08-09T18:08:00.036Z,32.10
2018-08-09T18:10:31.430Z,31.80
2018-08-09T18:13:00.285Z,32.40
2018-08-09T18:15:29.916Z,31.90
2018-08-09T18:17:59.277Z,32.40
2018-08-09T18:20:29.950Z,31.90
2018-08-09T18:22:59.171Z,32.50
2018-08-09T18:25:28.356Z,32.00
2018-08-09T18:27:57.616Z,31.80
2018-08-09T18:30:26.505Z,32.40
2018-08-09T18:32:55.548Z,31.90
2018-08-09T18:35:25.064Z,32.40
2018-08-09T18:37:53.894Z,32.30
2018-08-09T18:40:25.139Z,32.60
2018-08-09T18:42:54.428Z,32.60
2018-08-09T18:45:23.542Z,32.70
2018-08-09T18:47:52.373Z,32.80
2018-08-09T18:50:23.987Z,32.40
2018-08-09T18:52:52.812Z,33.00
2018-08-09T18:55:21.633Z,32.70
2018-08-09T18:57:50.499Z,33.20
2018-08-09T19:00:24.505Z,33.40
2018-08-09T19:02:53.561Z,33.70
2018-08-09T19:05:22.563Z,33.80
2018-08-09T19:07:51.376Z,34.00
2018-08-09T19:10:24.949Z,34.10
2018-08-09T19:12:53.856Z,34.20
2018-08-09T19:15:22.684Z,34.30
2018-08-09T19:17:51.813Z,34.50
2018-08-09T19:20:26.213Z,34.10
2018-08-09T19:22:55.232Z,34.00
2018-08-09T19:25:24.131Z,34.30
2018-08-09T19:27:53.291Z,34.80
2018-08-09T19:30:24.617Z,34.00
2018-08-09T19:32:53.464Z,35.00
2018-08-09T19:35:22.931Z,35.10
2018-08-09T19:37:51.822Z,34.80
2018-08-09T19:40:26.099Z,35.40
2018-08-09T19:42:55.005Z,35.40
2018-08-09T19:45:23.838Z,35.60
2018-08-09T19:47:52.681Z,35.70
2018-08-09T19:50:23.277Z,35.80
2018-08-09T19:52:52.145Z,36.00
2018-08-09T19:55:22.553Z,35.30
2018-08-09T19:57:51.892Z,36.00
2018-08-09T20:00:24.139Z,36.20
2018-08-09T20:02:52.965Z,36.80
2018-08-09T20:05:21.889Z,36.90
2018-08-09T20:07:50.759Z,37.70
2018-08-09T20:10:20.246Z,37.80
2018-08-09T20:12:49.429Z,38.50
2018-08-09T20:15:21.379Z,38.90
2018-08-09T20:17:50.237Z,39.10
2018-08-09T20:20:21.705Z,40.40
2018-08-09T20:22:50.703Z,41.60
2018-08-09T20:25:19.443Z,43.60
2018-08-09T20:27:48.323Z,43.70
2018-08-09T20:30:18.761Z,42.10
2018-08-09T20:32:54.515Z,43.80
2018-08-09T20:35:24.361Z,44.70
2018-08-09T20:37:53.393Z,44.20
2018-08-09T20:40:23.175Z,46.40
2018-08-09T20:45:22.806Z,46.00
2018-08-09T20:47:51.625Z,46.90
2018-08-09T20:50:22.565Z,47.90
2018-08-09T20:52:51.763Z,49.20
2018-08-09T20:55:20.633Z,50.20
2018-08-09T20:57:50.269Z,50.40
2018-08-09T21:00:22.112Z,50.10
2018-08-09T21:02:52.345Z,52.50
2018-08-09T21:05:30.714Z,51.30
2018-08-09T21:07:59.955Z,51.40
2018-08-09T21:10:29.357Z,50.60
2018-08-09T21:12:58.310Z,52.40
2018-08-09T21:15:27.316Z,54.30
2018-08-09T21:17:56.086Z,54.40
2018-08-09T21:20:24.999Z,55.60
2018-08-09T21:22:53.925Z,56.20
2018-08-09T21:27:52.267Z,56.60
2018-08-09T21:30:23.277Z,54.10
2018-08-09T21:35:21.829Z,57.50
2018-08-09T21:37:50.659Z,56.00
2018-08-09T21:40:19.546Z,59.60
2018-08-09T21:42:48.349Z,56.00
2018-08-09T21:45:19.468Z,60.40
2018-08-09T21:47:48.269Z,59.70
2018-08-09T21:50:21.335Z,60.40
2018-08-09T21:52:50.168Z,58.10
2018-08-09T21:55:19.002Z,61.80
2018-08-09T21:57:48.231Z,61.30
2018-08-09T22:00:59.909Z,62.00
2018-08-09T22:03:31.339Z,62.50
2018-08-09T22:06:05.607Z,62.50
2018-08-09T22:08:39.791Z,62.50
2018-08-09T22:11:15.938Z,60.70
2018-08-09T22:13:50.025Z,63.40
2018-08-09T22:16:24.386Z,64.20
2018-08-09T22:18:58.709Z,64.00
2018-08-09T22:21:32.940Z,59.10
2018-08-09T22:24:02.111Z,61.30
2018-08-09T22:26:30.982Z,65.10
2018-08-09T22:28:59.819Z,65.40
2018-08-09T22:31:29.298Z,65.60
2018-08-09T22:33:58.209Z,65.90
2018-08-09T22:36:27.007Z,64.60
2018-08-09T22:38:55.845Z,61.30
2018-08-09T22:41:24.665Z,65.30
2018-08-09T22:43:53.477Z,62.80
2018-08-09T22:46:22.407Z,64.10
2018-08-09T22:48:51.230Z,63.40
2018-08-09T22:51:20.025Z,64.80
2018-08-09T22:53:48.824Z,64.20
2018-08-09T22:56:17.631Z,63.30
2018-08-09T22:58:46.433Z,63.70
2018-08-09T23:01:15.367Z,62.50
2018-08-09T23:03:44.223Z,64.20
2018-08-09T23:06:14.077Z,64.20
2018-08-09T23:08:43.265Z,63.10
2018-08-09T23:11:12.075Z,62.60
2018-08-09T23:13:40.896Z,63.20
2018-08-09T23:16:09.738Z,63.90
2018-08-09T23:18:38.542Z,64.10
2018-08-09T23:21:07.344Z,63.90
2018-08-09T23:23:36.174Z,64.00
2018-08-09T23:26:05.273Z,64.30
2018-08-09T23:28:34.070Z,64.00
2018-08-09T23:31:03.041Z,63.40
2018-08-09T23:33:32.474Z,64.10
2018-08-09T23:36:01.281Z,63.30
2018-08-09T23:38:30.148Z,64.20
2018-08-09T23:40:58.959Z,64.10
2018-08-09T23:43:27.784Z,64.10
2018-08-09T23:45:56.649Z,63.30
2018-08-09T23:48:25.480Z,62.30
2018-08-09T23:50:54.290Z,60.20
2018-08-09T23:53:23.235Z,62.50
2018-08-09T23:55:52.456Z,61.50
2018-08-09T23:58:21.256Z,61.50
